createdAt,value
2022-11-20T00:02:17.033Z,101506.72
2022-11-20T00:04:45.496Z,101496.50
2022-11-20T00:07:14.221Z,101497.34
2022-11-20T00:09:47.840Z,101499.03
2022-11-20T00:12:15.263Z,101495.56
2022-11-20T00:14:42.659Z,101492.13
2022-11-20T00:17:09.966Z,101482.78
2022-11-20T00:19:38.788Z,101490.47
2022-11-20T00:22:09.429Z,101490.47
2022-11-20T00:24:43.017Z,101484.50
2022-11-20T00:27:11.814Z,101483.59
2022-11-20T00:29:39.105Z,101481.91
2022-11-20T00:32:07.095Z,101487.84
2022-11-20T00:34:40.048Z,101489.50
2022-11-20T00:37:14.170Z,101484.41
2022-11-20T00:39:46.880Z,101480.16
2022-11-20T00:42:16.727Z,101474.16
2022-11-20T00:44:45.516Z,101478.38
2022-11-20T00:47:13.115Z,101480.94
2022-11-20T00:49:50.197Z,101485.19
2022-11-20T00:52:17.471Z,101480.97
2022-11-20T00:54:44.687Z,101479.28
2022-11-20T00:57:16.992Z,101472.47
2022-11-20T00:59:46.921Z,101469.00
2022-11-20T01:02:25.606Z,101469.84
2022-11-20T01:04:53.057Z,101468.16
2022-11-20T01:07:22.086Z,101465.63
2022-11-20T01:09:49.635Z,101463.06
2022-11-20T01:12:24.156Z,101466.44
2022-11-20T01:14:56.919Z,101468.16
2022-11-20T01:17:25.062Z,101473.28
2022-11-20T01:19:52.407Z,101469.81
2022-11-20T01:22:19.623Z,101459.59
2022-11-20T01:24:48.097Z,101444.19
2022-11-20T01:27:18.012Z,101451.84
2022-11-20T01:29:47.414Z,101450.16
2022-11-20T01:32:13.796Z,101454.38
2022-11-20T01:34:40.170Z,101453.50
2022-11-20T01:37:06.593Z,101452.63
2022-11-20T01:39:32.972Z,101453.44
2022-11-20T01:42:18.925Z,101450.03
2022-11-20T01:44:53.263Z,101448.31
2022-11-20T01:47:39.320Z,101450.88
2022-11-20T01:50:17.865Z,101460.31
2022-11-20T01:52:51.880Z,101450.09
2022-11-20T01:55:26.714Z,101453.44
2022-11-20T01:57:53.792Z,101447.38
2022-11-20T02:00:21.911Z,101445.63
2022-11-20T02:02:58.641Z,101443.94
2022-11-20T02:05:40.272Z,101452.41
2022-11-20T02:08:07.979Z,101450.69
2022-11-20T02:10:35.107Z,101454.09
2022-11-20T02:13:20.727Z,101445.56
2022-11-20T02:15:47.964Z,101448.06
2022-11-20T02:18:17.213Z,101450.59
2022-11-20T02:20:46.191Z,101446.25
2022-11-20T02:23:18.066Z,101442.75
2022-11-20T02:25:46.797Z,101449.47
2022-11-20T02:28:19.403Z,101441.75
2022-11-20T02:30:45.833Z,101440.88
2022-11-20T02:33:14.916Z,101444.31
2022-11-20T02:35:43.790Z,101428.16
2022-11-20T02:38:11.467Z,101433.25
2022-11-20T02:40:37.968Z,101420.50
2022-11-20T02:43:04.383Z,101425.63
2022-11-20T02:45:30.755Z,101420.56
2022-11-20T02:47:57.305Z,101415.38
2022-11-20T02:50:23.807Z,101423.88
2022-11-20T02:52:50.881Z,101423.03
2022-11-20T02:55:17.463Z,101420.53
2022-11-20T02:57:43.949Z,101424.75
2022-11-20T03:00:10.955Z,101415.34
2022-11-20T03:02:37.542Z,101411.94
2022-11-20T03:05:04.190Z,101408.56
2022-11-20T03:07:30.777Z,101408.59
2022-11-20T03:09:57.258Z,101410.25
2022-11-20T03:12:23.678Z,101408.59
2022-11-20T03:14:53.015Z,101406.81
2022-11-20T03:17:20.699Z,101404.22
2022-11-20T03:19:47.208Z,101398.19
2022-11-20T03:22:13.733Z,101405.84
2022-11-20T03:24:40.289Z,101395.66
2022-11-20T03:27:06.741Z,101399.03
2022-11-20T03:29:33.528Z,101400.75
2022-11-20T03:32:00.155Z,101400.69
2022-11-20T03:34:26.609Z,101390.47
2022-11-20T03:36:53.046Z,101388.72
2022-11-20T03:39:19.843Z,101396.41
2022-11-20T03:41:46.478Z,101391.25
2022-11-20T03:44:13.134Z,101393.75
2022-11-20T03:46:40.026Z,101386.06
2022-11-20T03:49:06.709Z,101380.06
2022-11-20T03:51:35.710Z,101374.13
2022-11-20T03:54:05.584Z,101381.75
2022-11-20T03:56:34.747Z,101381.78
2022-11-20T03:59:01.586Z,101384.31
2022-11-20T04:01:35.170Z,101384.25
2022-11-20T04:04:02.033Z,101385.13
2022-11-20T04:06:35.900Z,101378.31
2022-11-20T04:09:02.406Z,101373.22
2022-11-20T04:11:31.432Z,101366.38
2022-11-20T04:14:00.928Z,101367.25
2022-11-20T04:16:30.539Z,101370.63
2022-11-20T04:19:00.172Z,101363.00
2022-11-20T04:21:27.325Z,101360.34
2022-11-20T04:23:55.073Z,101357.78
2022-11-20T04:26:23.821Z,101354.41
2022-11-20T04:28:50.653Z,101367.16
2022-11-20T04:31:22.445Z,101371.31
2022-11-20T04:33:48.977Z,101373.81
2022-11-20T04:36:18.693Z,101367.03
2022-11-20T04:38:45.946Z,101366.16
2022-11-20T04:41:18.066Z,101354.22
2022-11-20T04:43:49.422Z,101354.09
2022-11-20T04:46:17.347Z,101352.41
2022-11-20T04:48:43.925Z,101340.50
2022-11-20T04:51:10.907Z,101343.91
2022-11-20T04:53:38.321Z,101346.41
2022-11-20T04:56:07.753Z,101348.16
2022-11-20T04:58:35.259Z,101337.06
2022-11-20T05:01:07.694Z,101337.06
2022-11-20T05:03:37.343Z,101339.63
2022-11-20T05:06:07.409Z,101342.97
2022-11-20T05:08:34.429Z,101345.47
2022-11-20T05:11:06.548Z,101342.88
2022-11-20T05:13:33.029Z,101336.13
2022-11-20T05:16:14.668Z,101339.50
2022-11-20T05:18:42.237Z,101341.19
2022-11-20T05:21:10.974Z,101336.91
2022-11-20T05:23:38.334Z,101337.78
2022-11-20T05:26:06.947Z,101325.03
2022-11-20T05:28:34.026Z,101317.41
2022-11-20T05:31:23.395Z,101310.56
2022-11-20T05:33:52.969Z,101313.88
2022-11-20T05:36:19.565Z,101313.03
2022-11-20T05:38:50.465Z,101305.44
2022-11-20T05:41:19.981Z,101300.34
2022-11-20T05:43:47.696Z,101296.09
2022-11-20T05:46:17.118Z,101295.25
2022-11-20T05:48:44.731Z,101304.59
2022-11-20T05:51:13.880Z,101321.56
2022-11-20T05:53:46.714Z,101326.53
2022-11-20T05:56:20.472Z,101327.31
2022-11-20T05:58:48.010Z,101328.19
2022-11-20T06:01:17.168Z,101326.47
2022-11-20T06:03:46.945Z,101328.19
2022-11-20T06:06:17.990Z,101328.19
2022-11-20T06:08:45.832Z,101346.03
2022-11-20T06:11:13.729Z,101345.16
2022-11-20T06:13:42.284Z,101349.34
2022-11-20T06:16:09.817Z,101341.69
2022-11-20T06:18:36.258Z,101354.44
2022-11-20T06:21:10.053Z,101346.75
2022-11-20T06:23:37.177Z,101345.97
2022-11-20T06:26:08.991Z,101350.25
2022-11-20T06:28:38.963Z,101345.16
2022-11-20T06:31:06.718Z,101340.78
2022-11-20T06:33:33.627Z,101350.16
2022-11-20T06:36:05.854Z,101345.09
2022-11-20T06:38:35.596Z,101339.22
2022-11-20T06:41:02.090Z,101344.25
2022-11-20T06:43:30.617Z,101340.81
2022-11-20T06:45:59.951Z,101343.41
2022-11-20T06:48:30.435Z,101349.34
2022-11-20T06:51:03.287Z,101347.69
2022-11-20T06:53:30.889Z,101349.44
2022-11-20T06:56:01.371Z,101348.66
2022-11-20T06:58:29.802Z,101338.50
2022-11-20T07:01:26.620Z,101334.25
2022-11-20T07:04:02.056Z,101326.53
2022-11-20T07:06:38.850Z,101329.81
2022-11-20T07:09:12.577Z,101323.06
2022-11-20T07:11:39.369Z,101328.13
2022-11-20T07:14:06.137Z,101326.38
2022-11-20T07:16:32.608Z,101317.91
2022-11-20T07:18:59.887Z,101318.00
2022-11-20T07:21:26.320Z,101318.03
2022-11-20T07:23:52.763Z,101321.44
2022-11-20T07:26:20.313Z,101326.56
2022-11-20T07:28:46.827Z,101325.75
2022-11-20T07:31:18.799Z,101322.41
2022-11-20T07:33:46.051Z,101313.13
2022-11-20T07:36:12.561Z,101310.66
2022-11-20T07:38:39.132Z,101314.13
2022-11-20T07:41:06.016Z,101306.53
2022-11-20T07:43:35.896Z,101302.34
2022-11-20T07:46:06.391Z,101307.50
2022-11-20T07:48:33.237Z,101311.84
2022-11-20T07:51:04.086Z,101304.28
2022-11-20T07:53:30.551Z,101306.94
2022-11-20T07:56:01.426Z,101313.91
2022-11-20T07:58:30.901Z,101314.75
2022-11-20T08:01:06.791Z,101314.72
2022-11-20T08:03:33.800Z,101315.63
2022-11-20T08:06:04.286Z,101317.41
2022-11-20T08:08:33.692Z,101308.13
2022-11-20T08:11:19.406Z,101304.78
2022-11-20T08:14:05.048Z,101293.81
2022-11-20T08:16:31.482Z,101291.31
2022-11-20T08:18:58.072Z,101293.91
2022-11-20T08:21:24.908Z,101297.38
2022-11-20T08:23:51.632Z,101295.78
2022-11-20T08:26:17.989Z,101291.56
2022-11-20T08:28:44.975Z,101289.03
2022-11-20T08:31:11.370Z,101284.81
2022-11-20T08:33:37.800Z,101283.97
2022-11-20T08:36:05.574Z,101282.28
2022-11-20T08:38:33.028Z,101292.56
2022-11-20T08:41:19.805Z,101286.63
2022-11-20T08:43:46.221Z,101290.94
2022-11-20T08:46:13.520Z,101288.44
2022-11-20T08:48:39.962Z,101287.59
2022-11-20T08:51:06.765Z,101289.34
2022-11-20T08:53:33.188Z,101284.25
2022-11-20T08:56:00.260Z,101282.63
2022-11-20T08:58:27.501Z,101283.50
2022-11-20T09:00:54.127Z,101275.88
2022-11-20T09:03:20.695Z,101275.03
2022-11-20T09:05:47.093Z,101275.91
2022-11-20T09:08:13.471Z,101281.03
2022-11-20T09:10:43.263Z,101276.81
2022-11-20T09:13:09.847Z,101275.97
2022-11-20T09:15:36.195Z,101275.09
2022-11-20T09:18:05.528Z,101275.97
2022-11-20T09:20:32.339Z,101269.19
2022-11-20T09:22:59.158Z,101269.16
2022-11-20T09:25:26.162Z,101251.25
2022-11-20T09:28:02.435Z,101246.97
2022-11-20T09:30:28.883Z,101241.84
2022-11-20T09:32:55.937Z,101243.56
2022-11-20T09:35:22.486Z,101233.28
2022-11-20T09:37:49.076Z,101230.75
2022-11-20T09:40:36.218Z,101231.59
2022-11-20T09:43:13.870Z,101228.16
2022-11-20T09:46:01.326Z,101223.84
2022-11-20T09:48:44.302Z,101214.44
2022-11-20T09:51:37.665Z,101217.78
2022-11-20T09:54:27.673Z,101214.34
2022-11-20T09:56:57.881Z,101215.16
2022-11-20T09:59:36.160Z,101210.91
2022-11-20T10:02:07.695Z,101210.00
2022-11-20T10:04:40.783Z,101205.69
2022-11-20T10:07:33.414Z,101206.50
2022-11-20T10:10:00.397Z,101203.91
2022-11-20T10:12:56.722Z,101195.31
2022-11-20T10:15:37.094Z,101194.47
2022-11-20T10:18:21.838Z,101179.84
2022-11-20T10:21:02.223Z,101175.53
2022-11-20T10:23:57.371Z,101180.59
2022-11-20T10:26:32.431Z,101171.94
2022-11-20T10:29:16.495Z,101161.69
2022-11-20T10:31:50.247Z,101165.94
2022-11-20T10:34:27.306Z,101159.88
2022-11-20T10:36:59.843Z,101153.88
2022-11-20T10:39:42.828Z,101135.91
2022-11-20T10:42:17.712Z,101131.59
2022-11-20T10:45:06.381Z,101140.97
2022-11-20T10:47:43.393Z,101137.44
2022-11-20T10:50:20.572Z,101137.34
2022-11-20T10:53:22.231Z,101118.47
2022-11-20T10:55:55.979Z,101106.44
2022-11-20T10:58:40.788Z,101106.34
2022-11-20T11:01:15.959Z,101101.13
2022-11-20T11:03:44.317Z,101101.94
2022-11-20T11:06:25.885Z,101100.09
2022-11-20T11:08:56.235Z,101093.19
2022-11-20T11:11:29.852Z,101093.97
2022-11-20T11:14:07.227Z,101083.63
2022-11-20T11:16:33.666Z,101082.69
2022-11-20T11:19:12.350Z,101078.31
2022-11-20T11:21:44.322Z,101075.72
2022-11-20T11:24:47.557Z,101061.13
2022-11-20T11:27:17.387Z,101060.28
2022-11-20T11:29:45.030Z,101055.94
2022-11-20T11:32:16.888Z,101045.63
2022-11-20T11:34:43.329Z,101036.13
2022-11-20T11:37:22.757Z,101037.75
2022-11-20T11:40:03.924Z,101035.16
2022-11-20T11:42:36.702Z,101030.03
2022-11-20T11:45:06.300Z,101019.69
2022-11-20T11:47:36.962Z,101022.16
2022-11-20T11:50:14.446Z,101022.97
2022-11-20T11:52:49.560Z,101014.31
2022-11-20T11:55:54.882Z,101001.38
2022-11-20T11:58:27.259Z,101003.00
2022-11-20T12:01:09.590Z,101002.09
2022-11-20T12:03:42.832Z,100999.47
2022-11-20T12:06:15.744Z,100992.56
2022-11-20T12:08:56.822Z,100992.41
2022-11-20T12:11:30.164Z,100969.97
2022-11-20T12:14:05.240Z,100958.72
2022-11-20T12:16:37.560Z,100968.94
2022-11-20T12:19:11.146Z,100960.25
2022-11-20T12:22:03.381Z,100961.03
2022-11-20T12:24:53.288Z,100960.03
2022-11-20T12:27:45.567Z,100960.00
2022-11-20T12:30:18.019Z,100962.59
2022-11-20T12:32:44.454Z,100963.44
2022-11-20T12:35:40.078Z,100954.94
2022-11-20T12:38:23.414Z,100950.63
2022-11-20T12:41:08.326Z,100948.06
2022-11-20T12:44:18.253Z,100942.91
2022-11-20T12:46:51.362Z,100930.91
2022-11-20T12:49:30.403Z,100923.19
2022-11-20T12:52:06.041Z,100911.16
2022-11-20T12:54:52.213Z,100895.66
2022-11-20T12:57:41.376Z,100889.56
2022-11-20T13:00:08.890Z,100894.63
2022-11-20T13:03:03.966Z,100876.56
2022-11-20T13:06:06.433Z,100873.03
2022-11-20T13:08:39.522Z,100869.44
2022-11-20T13:11:18.122Z,100876.19
2022-11-20T13:14:03.858Z,100876.13
2022-11-20T13:16:42.530Z,100858.16
2022-11-20T13:19:13.310Z,100859.00
2022-11-20T13:21:43.447Z,100845.19
2022-11-20T13:24:28.688Z,100842.56
2022-11-20T13:27:10.574Z,100839.94
2022-11-20T13:29:38.701Z,100830.47
2022-11-20T13:32:16.252Z,100829.63
2022-11-20T13:35:04.283Z,100821.94
2022-11-20T13:37:35.035Z,100833.03
2022-11-20T13:40:11.510Z,100836.56
2022-11-20T13:42:43.602Z,100823.69
2022-11-20T13:45:21.570Z,100821.09
2022-11-20T13:47:50.439Z,100809.91
2022-11-20T13:50:17.249Z,100809.84
2022-11-20T13:53:08.398Z,100806.38
2022-11-20T13:55:49.111Z,100794.31
2022-11-20T13:58:45.723Z,100802.06
2022-11-20T14:01:27.249Z,100813.19
2022-11-20T14:04:09.871Z,100808.94
2022-11-20T14:06:45.135Z,100800.38
2022-11-20T14:09:14.332Z,100809.00
2022-11-20T14:11:47.450Z,100804.75
2022-11-20T14:14:22.121Z,100790.19
2022-11-20T14:16:50.379Z,100768.69
2022-11-20T14:19:22.863Z,100766.06
2022-11-20T14:22:15.601Z,100746.28
2022-11-20T14:24:56.703Z,100727.38
2022-11-20T14:27:23.425Z,100720.50
2022-11-20T14:29:51.334Z,100729.97
2022-11-20T14:32:26.604Z,100740.25
2022-11-20T14:34:53.302Z,100746.22
2022-11-20T14:37:34.010Z,100739.31
2022-11-20T14:40:01.756Z,100723.03
2022-11-20T14:42:30.014Z,100717.00
2022-11-20T14:45:00.253Z,100711.84
2022-11-20T14:47:30.217Z,100714.38
2022-11-20T14:49:58.583Z,100713.53
2022-11-20T14:52:28.652Z,100712.69
2022-11-20T14:55:00.461Z,100707.53
2022-11-20T14:57:32.704Z,100695.50
2022-11-20T15:00:21.310Z,100692.91
2022-11-20T15:02:50.098Z,100686.09
2022-11-20T15:05:18.659Z,100687.72
2022-11-20T15:07:48.186Z,100684.28
2022-11-20T15:10:17.689Z,100683.44
2022-11-20T15:12:50.278Z,100673.13
2022-11-20T15:15:22.326Z,100677.31
2022-11-20T15:17:48.760Z,100674.81
2022-11-20T15:20:19.610Z,100669.56
2022-11-20T15:22:46.570Z,100671.25
2022-11-20T15:25:18.548Z,100667.00
2022-11-20T15:27:47.168Z,100660.94
2022-11-20T15:30:18.976Z,100655.78
2022-11-20T15:32:47.011Z,100656.63
2022-11-20T15:35:14.450Z,100648.03
2022-11-20T15:37:41.089Z,100648.88
2022-11-20T15:40:09.134Z,100642.88
2022-11-20T15:42:37.606Z,100638.56
2022-11-20T15:45:04.755Z,100636.00
2022-11-20T15:47:34.202Z,100635.03
2022-11-20T15:50:00.728Z,100629.88
2022-11-20T15:52:30.495Z,100619.56
2022-11-20T15:55:08.270Z,100607.47
2022-11-20T15:57:35.967Z,100607.47
2022-11-20T16:00:02.415Z,100588.56
2022-11-20T16:02:28.862Z,100588.53
2022-11-20T16:04:57.095Z,100585.97
2022-11-20T16:07:30.725Z,100574.75
2022-11-20T16:09:58.064Z,100576.44
2022-11-20T16:12:43.607Z,100561.84
2022-11-20T16:15:29.407Z,100555.72
2022-11-20T16:17:55.771Z,100553.97
2022-11-20T16:20:22.486Z,100547.06
2022-11-20T16:22:49.034Z,100549.56
2022-11-20T16:25:15.454Z,100544.34
2022-11-20T16:27:41.904Z,100536.59
2022-11-20T16:30:09.124Z,100538.28
2022-11-20T16:32:35.572Z,100526.22
2022-11-20T16:35:02.030Z,100529.63
2022-11-20T16:37:28.933Z,100528.69
2022-11-20T16:39:57.221Z,100520.88
2022-11-20T16:42:23.600Z,100508.91
2022-11-20T16:44:49.995Z,100520.88
2022-11-20T16:47:16.439Z,100508.75
2022-11-20T16:49:43.310Z,100514.75
2022-11-20T16:52:09.721Z,100514.72
2022-11-20T16:54:36.147Z,100499.25
2022-11-20T16:57:02.711Z,100489.78
2022-11-20T16:59:29.207Z,100486.28
2022-11-20T17:01:55.675Z,100482.84
2022-11-20T17:04:22.502Z,100477.69
2022-11-20T17:06:49.952Z,100468.16
2022-11-20T17:09:17.168Z,100473.31
2022-11-20T17:11:43.826Z,100468.16
2022-11-20T17:14:11.554Z,100473.31
2022-11-20T17:16:38.162Z,100473.31
2022-11-20T17:19:06.339Z,100472.44
2022-11-20T17:21:36.225Z,100468.06
2022-11-20T17:24:05.215Z,100475.78
2022-11-20T17:26:32.194Z,100477.47
2022-11-20T17:29:04.946Z,100479.19
2022-11-20T17:31:32.687Z,100471.38
2022-11-20T17:34:00.286Z,100471.38
2022-11-20T17:36:27.438Z,100471.34
2022-11-20T17:38:54.073Z,100462.66
2022-11-20T17:41:25.432Z,100472.97
2022-11-20T17:44:00.244Z,100473.84
2022-11-20T17:46:29.678Z,100478.09
2022-11-20T17:48:56.619Z,100475.50
2022-11-20T17:51:26.345Z,100472.03
2022-11-20T17:53:55.572Z,100482.31
2022-11-20T17:56:40.647Z,100484.06
2022-11-20T17:59:10.810Z,100483.16
2022-11-20T18:01:39.709Z,100479.75
2022-11-20T18:04:06.570Z,100477.19
2022-11-20T18:06:33.037Z,100484.06
2022-11-20T18:09:01.051Z,100481.50
2022-11-20T18:11:30.120Z,100481.47
2022-11-20T18:14:17.813Z,100488.34
2022-11-20T18:16:47.042Z,100482.34
2022-11-20T18:19:16.069Z,100485.00
2022-11-20T18:21:42.953Z,100480.66
2022-11-20T18:24:09.516Z,100482.34
2022-11-20T18:26:42.794Z,100482.34
2022-11-20T18:29:11.455Z,100490.88
2022-11-20T18:31:38.096Z,100489.22
2022-11-20T18:34:04.956Z,100490.88
2022-11-20T18:36:32.850Z,100496.06
2022-11-20T18:39:01.717Z,100492.63
2022-11-20T18:41:48.957Z,100488.31
2022-11-20T18:44:42.524Z,100495.22
2022-11-20T18:47:14.997Z,100492.56
2022-11-20T18:49:50.806Z,100496.06
2022-11-20T18:52:23.632Z,100502.94
2022-11-20T18:54:50.766Z,100509.78
2022-11-20T18:57:21.218Z,100510.63
2022-11-20T18:59:49.011Z,100519.19
2022-11-20T19:02:18.567Z,100513.19
2022-11-20T19:04:51.613Z,100517.44
2022-11-20T19:07:18.311Z,100507.13
2022-11-20T19:09:48.963Z,100505.38
2022-11-20T19:12:15.735Z,100505.44
2022-11-20T19:14:42.396Z,100502.88
2022-11-20T19:17:11.223Z,100500.28
2022-11-20T19:19:37.654Z,100504.56
2022-11-20T19:22:04.765Z,100506.31
2022-11-20T19:24:31.697Z,100509.72
2022-11-20T19:26:58.438Z,100514.88
2022-11-20T19:29:25.659Z,100492.56
2022-11-20T19:31:52.597Z,100496.06
2022-11-20T19:34:19.163Z,100489.16
2022-11-20T19:36:45.637Z,100484.84
2022-11-20T19:39:13.157Z,100485.72
2022-11-20T19:41:40.812Z,100489.22
2022-11-20T19:44:12.509Z,100483.25
2022-11-20T19:46:39.699Z,100489.25
2022-11-20T19:49:10.011Z,100492.66
2022-11-20T19:51:38.582Z,100490.97
2022-11-20T19:54:06.726Z,100501.31
2022-11-20T19:56:34.134Z,100496.97
2022-11-20T19:59:03.094Z,100492.66
2022-11-20T20:01:31.467Z,100495.25
2022-11-20T20:04:03.544Z,100497.81
2022-11-20T20:06:30.987Z,100505.56
2022-11-20T20:09:06.176Z,100513.19
2022-11-20T20:11:34.276Z,100516.59
2022-11-20T20:14:02.877Z,100519.91
2022-11-20T20:16:29.671Z,100512.28
2022-11-20T20:18:58.709Z,100524.25
2022-11-20T20:21:25.293Z,100526.72
2022-11-20T20:23:54.080Z,100530.25
2022-11-20T20:26:22.230Z,100537.03
2022-11-20T20:28:48.731Z,100539.56
2022-11-20T20:31:18.352Z,100537.03
2022-11-20T20:33:45.789Z,100533.59
2022-11-20T20:36:14.325Z,100545.66
2022-11-20T20:38:42.347Z,100547.34
2022-11-20T20:41:09.094Z,100536.13
2022-11-20T20:43:56.472Z,100538.63
2022-11-20T20:46:23.681Z,100537.78
2022-11-20T20:48:54.458Z,100543.78
2022-11-20T20:51:22.295Z,100546.41
2022-11-20T20:53:49.921Z,100530.91
2022-11-20T20:56:17.334Z,100537.78
2022-11-20T20:58:44.193Z,100537.78
2022-11-20T21:01:17.240Z,100542.06
2022-11-20T21:03:43.934Z,100530.06
2022-11-20T21:06:11.679Z,100528.41
2022-11-20T21:08:40.809Z,100546.41
2022-11-20T21:11:11.318Z,100548.97
2022-11-20T21:13:39.717Z,100539.50
2022-11-20T21:16:07.679Z,100550.72
2022-11-20T21:18:34.860Z,100550.63
2022-11-20T21:21:24.158Z,100559.09
2022-11-20T21:23:52.039Z,100557.38
2022-11-20T21:26:19.819Z,100559.09
2022-11-20T21:28:46.387Z,100559.91
2022-11-20T21:31:25.046Z,100557.28
2022-11-20T21:33:53.095Z,100561.56
2022-11-20T21:36:22.359Z,100563.28
2022-11-20T21:38:51.742Z,100559.84
2022-11-20T21:41:21.556Z,100564.19
2022-11-20T21:44:09.143Z,100557.38
2022-11-20T21:46:38.876Z,100565.94
2022-11-20T21:49:05.491Z,100563.34
2022-11-20T21:51:32.204Z,100569.41
2022-11-20T21:53:59.760Z,100568.44
2022-11-20T21:56:26.961Z,100575.41
2022-11-20T21:58:54.941Z,100583.16
2022-11-20T22:01:28.924Z,100570.34
2022-11-20T22:03:58.785Z,100576.34
2022-11-20T22:06:29.744Z,100582.22
2022-11-20T22:08:56.139Z,100580.50
2022-11-20T22:11:22.657Z,100577.13
2022-11-20T22:14:07.906Z,100588.34
2022-11-20T22:16:35.963Z,100599.50
2022-11-20T22:19:03.382Z,100608.13
2022-11-20T22:21:30.620Z,100603.81
2022-11-20T22:23:58.632Z,100615.78
2022-11-20T22:26:31.717Z,100614.94
2022-11-20T22:29:00.679Z,100621.78
2022-11-20T22:31:29.600Z,100620.94
2022-11-20T22:33:57.442Z,100627.84
2022-11-20T22:36:26.205Z,100629.53
2022-11-20T22:38:52.661Z,100629.53
2022-11-20T22:41:20.483Z,100633.00
2022-11-20T22:43:47.324Z,100627.88
2022-11-20T22:46:19.035Z,100625.28
2022-11-20T22:48:54.805Z,100621.94
2022-11-20T22:51:32.734Z,100628.03
2022-11-20T22:53:59.984Z,100629.69
2022-11-20T22:56:26.924Z,100628.09
2022-11-20T22:58:53.911Z,100631.50
2022-11-20T23:01:34.790Z,100623.78
2022-11-20T23:04:04.112Z,100632.38
2022-11-20T23:06:34.171Z,100639.25
2022-11-20T23:09:01.587Z,100646.13
2022-11-20T23:11:32.297Z,100652.13
2022-11-20T23:14:01.558Z,100653.81
2022-11-20T23:16:29.759Z,100662.47
2022-11-20T23:19:01.003Z,100658.13
2022-11-20T23:21:27.901Z,100659.06
2022-11-20T23:23:58.673Z,100655.66
2022-11-20T23:26:32.991Z,100665.81
2022-11-20T23:29:00.897Z,100671.94
2022-11-20T23:31:29.848Z,100674.47
2022-11-20T23:33:57.094Z,100677.94
2022-11-20T23:36:23.597Z,100681.34
2022-11-20T23:38:50.118Z,100671.03
2022-11-20T23:41:17.835Z,100671.94
2022-11-20T23:43:44.697Z,100676.19
2022-11-20T23:46:15.103Z,100666.03
2022-11-20T23:48:42.407Z,100656.53
2022-11-20T23:51:09.612Z,100665.22
2022-11-20T23:53:36.169Z,100664.41
2022-11-20T23:56:04.897Z,100657.66
2022-11-20T23:58:36.687Z,100661.16
